Time,TemperatureF,DewpointF,PressureIn,WindDirection,WindDirectionDegrees,WindSpeedMPH,WindSpeedGustMPH,Humidity,HourlyPrecipIn,Conditions,Clouds,dailyrainin,SolarRadiationWatts/m^2,SoftwareType,DateUTC
2013-11-20 00:13:00,53.8,40.0,30.20,WSW,252,0.0,-999.0,60,-99.99,,,0.00,0,weatherlink.com 1.10,2013-11-20 07:13:00,
2013-11-20 00:28:00,53.7,40.0,30.20,WSW,252,0.0,-999.0,60,-99.99,,,0.00,0,weatherlink.com 1.10,2013-11-20 07:28:00,
2013-11-20 00:43:00,52.8,39.0,30.19,WSW,252,0.0,-999.0,60,-99.99,,,0.00,0,weatherlink.com 1.10,2013-11-20 07:43:00,
2013-11-20 00:58:00,52.3,39.0,30.19,WSW,252,0.0,-999.0,61,-99.99,,,0.00,0,weatherlink.com 1.10,2013-11-20 07:58:00,
2013-11-20 01:13:00,51.8,39.0,30.20,WSW,252,0.0,-999.0,63,-99.99,,,0.00,0,weatherlink.com 1.10,2013-11-20 08:13:00,
2013-11-20 01:28:00,51.2,39.0,30.20,WSW,252,0.0,-999.0,64,-99.99,,,0.00,0,weatherlink.com 1.10,2013-11-20 08:28:00,
2013-11-20 01:43:00,50.8,39.0,30.19,WSW,252,0.0,-999.0,64,-99.99,,,0.00,0,weatherlink.com 1.10,2013-11-20 08:43:00,
2013-11-20 01:58:00,50.3,39.0,30.19,WSW,252,0.0,-999.0,65,-99.99,,,0.00,0,weatherlink.com 1.10,2013-11-20 08:58:00,
2013-11-20 02:13:00,50.0,39.0,30.19,WSW,252,0.0,-999.0,66,-99.99,,,0.00,0,weatherlink.com 1.10,2013-11-20 09:13:00,
2013-11-20 02:28:00,49.5,39.0,30.19,WSW,252,0.0,-999.0,67,-99.99,,,0.00,0,weatherlink.com 1.10,2013-11-20 09:28:00,
2013-11-20 02:43:00,49.3,39.0,30.20,WSW,252,0.0,-999.0,69,-99.99,,,0.00,0,weatherlink.com 1.10,2013-11-20 09:43:00,
2013-11-20 02:58:00,49.8,40.0,30.19,WSW,252,0.0,-999.0,68,-99.99,,,0.00,0,weatherlink.com 1.10,2013-11-20 09:58:00,
2013-11-20 03:13:00,49.3,39.0,30.19,WSW,252,0.0,-999.0,67,-99.99,,,0.00,0,weatherlink.com 1.10,2013-11-20 10:13:00,
2013-11-20 03:28:00,48.8,39.0,30.18,SSW,192,0.0,-999.0,69,-99.99,,,0.00,0,weatherlink.com 1.10,2013-11-20 10:28:00,
2013-11-20 03:43:00,48.5,39.0,30.19,SSW,192,0.0,-999.0,70,-99.99,,,0.00,0,weatherlink.com 1.10,2013-11-20 10:43:00,
2013-11-20 03:58:00,48.8,39.0,30.18,SSW,192,0.0,-999.0,68,-99.99,,,0.00,0,weatherlink.com 1.10,2013-11-20 10:58:00,
2013-11-20 04:13:00,48.9,39.0,30.19,SSW,192,0.0,-999.0,69,-99.99,,,0.00,0,weatherlink.com 1.10,2013-11-20 11:13:00,
2013-11-20 04:28:00,49.3,39.0,30.19,SSW,192,0.0,-999.0,68,-99.99,,,0.00,0,weatherlink.com 1.10,2013-11-20 11:28:00,
2013-11-20 04:43:00,48.9,39.0,30.19,SSW,192,0.0,-999.0,68,-99.99,,,0.00,0,weatherlink.com 1.10,2013-11-20 11:43:00,
2013-11-20 04:58:00,48.5,38.0,30.19,SSW,192,0.0,-999.0,68,-99.99,,,0.00,0,weatherlink.com 1.10,2013-11-20 11:58:00,
2013-11-20 05:13:00,48.4,39.0,30.19,SSW,192,0.0,-999.0,70,-99.99,,,0.00,0,weatherlink.com 1.10,2013-11-20 12:13:00,
2013-11-20 05:28:00,48.7,39.0,30.19,SSW,192,0.0,-999.0,69,-99.99,,,0.00,0,weatherlink.com 1.10,2013-11-20 12:28:00,
2013-11-20 05:43:00,48.8,39.0,30.20,SSW,192,0.0,-999.0,69,-99.99,,,0.00,0,weatherlink.com 1.10,2013-11-20 12:43:00,
2013-11-20 05:58:00,49.4,39.0,30.20,SSW,192,0.0,-999.0,68,-99.99,,,0.00,0,weatherlink.com 1.10,2013-11-20 12:58:00,
2013-11-20 06:13:00,49.9,40.0,30.19,SSW,192,0.0,-999.0,68,-99.99,,,0.00,0,weatherlink.com 1.10,2013-11-20 13:13:00,
2013-11-20 06:28:00,50.1,39.0,30.18,SSW,192,0.0,-999.0,66,-99.99,,,0.00,0,weatherlink.com 1.10,2013-11-20 13:28:00,
2013-11-20 06:43:00,50.6,39.0,30.18,SSW,192,0.0,-999.0,64,-99.99,,,0.00,0,weatherlink.com 1.10,2013-11-20 13:43:00,
2013-11-20 06:58:00,50.5,39.0,30.18,SSW,192,0.0,-999.0,65,-99.99,,,0.00,0,weatherlink.com 1.10,2013-11-20 13:58:00,
2013-11-20 07:13:00,50.1,39.0,30.20,SSW,192,0.0,-999.0,66,-99.99,,,0.00,11,weatherlink.com 1.10,2013-11-20 14:13:00,
2013-11-20 07:28:00,50.2,39.0,30.20,SSW,192,0.0,-999.0,66,-99.99,,,0.00,37,weatherlink.com 1.10,2013-11-20 14:28:00,
2013-11-20 07:43:00,50.4,40.0,30.21,SSW,192,0.0,-999.0,67,-99.99,,,0.00,46,weatherlink.com 1.10,2013-11-20 14:43:00,
2013-11-20 07:58:00,51.0,40.0,30.21,SSW,192,0.0,-999.0,66,-99.99,,,0.00,63,weatherlink.com 1.10,2013-11-20 14:58:00,
2013-11-20 08:13:00,52.2,40.0,30.21,SSW,192,0.0,-999.0,64,-99.99,,,0.00,113,weatherlink.com 1.10,2013-11-20 15:13:00,
2013-11-20 08:28:00,54.1,41.0,30.21,ESE,113,0.0,-999.0,61,-99.99,,,0.00,190,weatherlink.com 1.10,2013-11-20 15:28:00,
2013-11-20 08:43:00,55.9,42.0,30.21,ESE,113,2.0,-999.0,59,-99.99,,,0.00,172,weatherlink.com 1.10,2013-11-20 15:43:00,
2013-11-20 08:58:00,57.5,41.0,30.21,SE,132,0.0,-999.0,55,-99.99,,,0.00,181,weatherlink.com 1.10,2013-11-20 15:58:00,
2013-11-20 09:13:00,59.2,41.0,30.20,SE,140,0.0,-999.0,52,-99.99,,,0.00,204,weatherlink.com 1.10,2013-11-20 16:13:00,
2013-11-20 09:28:00,61.4,41.0,30.20,SE,136,2.0,-999.0,48,-99.99,,,0.00,246,weatherlink.com 1.10,2013-11-20 16:28:00,
2013-11-20 09:43:00,61.8,42.0,30.20,SE,136,0.0,-999.0,49,-99.99,,,0.00,244,weatherlink.com 1.10,2013-11-20 16:43:00,
2013-11-20 09:58:00,62.3,42.0,30.19,SE,126,0.0,-999.0,48,-99.99,,,0.00,206,weatherlink.com 1.10,2013-11-20 16:58:00,
2013-11-20 10:13:00,64.0,42.0,30.20,SE,125,1.0,-999.0,45,-99.99,,,0.00,313,weatherlink.com 1.10,2013-11-20 17:13:00,
2013-11-20 10:28:00,65.9,41.0,30.19,SE,130,0.0,-999.0,40,-99.99,,,0.00,519,weatherlink.com 1.10,2013-11-20 17:28:00,
2013-11-20 10:43:00,67.6,40.0,30.18,ESE,103,0.0,-999.0,37,-99.99,,,0.00,357,weatherlink.com 1.10,2013-11-20 17:43:00,
2013-11-20 10:58:00,69.3,40.0,30.18,ESE,104,0.0,-999.0,35,-99.99,,,0.00,490,weatherlink.com 1.10,2013-11-20 17:58:00,
2013-11-20 11:13:00,70.7,40.0,30.18,ESE,105,0.0,-999.0,33,-99.99,,,0.00,308,weatherlink.com 1.10,2013-11-20 18:13:00,
2013-11-20 11:28:00,71.0,40.0,30.18,ESE,105,0.0,-999.0,33,-99.99,,,0.00,617,weatherlink.com 1.10,2013-11-20 18:28:00,
2013-11-20 11:43:00,72.3,40.0,30.17,South,174,1.0,-999.0,31,-99.99,,,0.00,629,weatherlink.com 1.10,2013-11-20 18:43:00,
2013-11-20 11:58:00,72.8,40.0,30.17,WSW,245,0.0,-999.0,31,-99.99,,,0.00,687,weatherlink.com 1.10,2013-11-20 18:58:00,
2013-11-20 12:13:00,74.2,38.0,30.15,West,281,2.0,-999.0,27,-99.99,,,0.00,784,weatherlink.com 1.10,2013-11-20 19:13:00,
2013-11-20 12:28:00,73.5,38.0,30.15,NNW,327,0.0,-999.0,28,-99.99,,,0.00,701,weatherlink.com 1.10,2013-11-20 19:28:00,
2013-11-20 12:43:00,73.7,39.0,30.14,West,279,4.0,-999.0,28,-99.99,,,0.00,629,weatherlink.com 1.10,2013-11-20 19:43:00,
2013-11-20 12:58:00,73.9,39.0,30.14,NNE,33,3.0,-999.0,28,-99.99,,,0.00,540,weatherlink.com 1.10,2013-11-20 19:58:00,
2013-11-20 13:13:00,73.2,39.0,30.13,West,268,8.0,-999.0,29,-99.99,,,0.00,436,weatherlink.com 1.10,2013-11-20 20:13:00,
2013-11-20 13:28:00,72.9,40.0,30.13,NW,314,7.0,-999.0,31,-99.99,,,0.00,526,weatherlink.com 1.10,2013-11-20 20:28:00,
2013-11-20 13:43:00,72.4,40.0,30.13,NNE,12,4.0,-999.0,31,-99.99,,,0.00,348,weatherlink.com 1.10,2013-11-20 20:43:00,
2013-11-20 13:58:00,72.2,40.0,30.12,North,355,6.0,-999.0,31,-99.99,,,0.00,265,weatherlink.com 1.10,2013-11-20 20:58:00,
2013-11-20 14:13:00,73.5,38.0,30.11,WNW,290,7.0,-999.0,28,-99.99,,,0.00,538,weatherlink.com 1.10,2013-11-20 21:13:00,
2013-11-20 14:28:00,74.2,38.0,30.11,WNW,301,9.0,-999.0,27,-99.99,,,0.00,513,weatherlink.com 1.10,2013-11-20 21:28:00,
2013-11-20 14:43:00,74.7,38.0,30.11,NW,324,6.0,-999.0,26,-99.99,,,0.00,559,weatherlink.com 1.10,2013-11-20 21:43:00,
2013-11-20 14:58:00,73.9,37.0,30.11,WNW,298,3.0,-999.0,26,-99.99,,,0.00,181,weatherlink.com 1.10,2013-11-20 21:58:00,
2013-11-20 15:13:00,73.2,36.0,30.11,WNW,297,7.0,-999.0,26,-99.99,,,0.00,199,weatherlink.com 1.10,2013-11-20 22:13:00,
2013-11-20 15:28:00,73.3,37.0,30.11,WNW,302,6.0,-999.0,27,-99.99,,,0.00,132,weatherlink.com 1.10,2013-11-20 22:28:00,
2013-11-20 15:43:00,73.2,38.0,30.10,West,275,9.0,-999.0,28,-99.99,,,0.00,128,weatherlink.com 1.10,2013-11-20 22:43:00,
2013-11-20 15:58:00,73.1,40.0,30.11,WNW,293,5.0,-999.0,30,-99.99,,,0.00,98,weatherlink.com 1.10,2013-11-20 22:58:00,
2013-11-20 16:13:00,72.4,37.0,30.12,NW,314,7.0,-999.0,28,-99.99,,,0.00,67,weatherlink.com 1.10,2013-11-20 23:13:00,
2013-11-20 16:28:00,72.0,37.0,30.12,North,5,4.0,-999.0,28,-99.99,,,0.00,46,weatherlink.com 1.10,2013-11-20 23:28:00,
2013-11-20 16:43:00,71.6,38.0,30.12,North,10,6.0,-999.0,29,-99.99,,,0.00,26,weatherlink.com 1.10,2013-11-20 23:43:00,
2013-11-20 16:58:00,71.2,38.0,30.11,NNW,329,2.0,-999.0,30,-99.99,,,0.00,21,weatherlink.com 1.10,2013-11-20 23:58:00,
2013-11-20 17:13:00,71.0,39.0,30.12,WNW,303,2.0,-999.0,31,-99.99,,,0.00,5,weatherlink.com 1.10,2013-11-21 00:13:00,
2013-11-20 17:28:00,70.7,39.0,30.13,NW,306,4.0,-999.0,32,-99.99,,,0.00,0,weatherlink.com 1.10,2013-11-21 00:28:00,
2013-11-20 17:43:00,70.5,39.0,30.13,WNW,298,3.0,-999.0,32,-99.99,,,0.00,0,weatherlink.com 1.10,2013-11-21 00:43:00,
2013-11-20 17:58:00,70.2,40.0,30.14,WNW,300,6.0,-999.0,33,-99.99,,,0.00,0,weatherlink.com 1.10,2013-11-21 00:58:00,
2013-11-20 18:13:00,69.9,40.0,30.14,WNW,290,4.0,-999.0,34,-99.99,,,0.00,0,weatherlink.com 1.10,2013-11-21 01:13:00,
2013-11-20 18:28:00,69.5,40.0,30.15,WNW,299,2.0,-999.0,34,-99.99,,,0.00,0,weatherlink.com 1.10,2013-11-21 01:28:00,
2013-11-20 18:43:00,69.3,40.0,30.16,NW,311,2.0,-999.0,35,-99.99,,,0.00,0,weatherlink.com 1.10,2013-11-21 01:43:00,
2013-11-20 18:58:00,69.2,40.0,30.16,WNW,294,1.0,-999.0,35,-99.99,,,0.00,0,weatherlink.com 1.10,2013-11-21 01:58:00,
2013-11-20 19:13:00,68.7,41.0,30.16,NW,313,2.0,-999.0,36,-99.99,,,0.00,0,weatherlink.com 1.10,2013-11-21 02:13:00,
2013-11-20 19:28:00,68.2,41.0,30.16,NW,313,0.0,-999.0,37,-99.99,,,0.00,0,weatherlink.com 1.10,2013-11-21 02:28:00,
2013-11-20 19:43:00,67.7,41.0,30.16,NW,313,2.0,-999.0,38,-99.99,,,0.00,0,weatherlink.com 1.10,2013-11-21 02:43:00,
2013-11-20 19:58:00,67.5,41.0,30.16,WNW,295,0.0,-999.0,38,-99.99,,,0.00,0,weatherlink.com 1.10,2013-11-21 02:58:00,
2013-11-20 20:13:00,67.0,41.0,30.17,West,276,2.0,-999.0,39,-99.99,,,0.00,0,weatherlink.com 1.10,2013-11-21 03:13:00,
2013-11-20 20:28:00,66.3,41.0,30.18,West,268,1.0,-999.0,40,-99.99,,,0.00,0,weatherlink.com 1.10,2013-11-21 03:28:00,
2013-11-20 20:43:00,66.0,41.0,30.18,WNW,288,0.0,-999.0,41,-99.99,,,0.00,0,weatherlink.com 1.10,2013-11-21 03:43:00,
2013-11-20 20:58:00,65.4,41.0,30.19,WNW,291,3.0,-999.0,41,-99.99,,,0.00,0,weatherlink.com 1.10,2013-11-21 03:58:00,
2013-11-20 21:13:00,65.1,41.0,30.18,WSW,248,3.0,-999.0,42,-99.99,,,0.00,0,weatherlink.com 1.10,2013-11-21 04:13:00,
2013-11-20 21:28:00,64.7,41.0,30.19,West,277,4.0,-999.0,42,-99.99,,,0.00,0,weatherlink.com 1.10,2013-11-21 04:28:00,
2013-11-20 21:43:00,64.3,41.0,30.20,NW,313,4.0,-999.0,42,-99.99,,,0.00,0,weatherlink.com 1.10,2013-11-21 04:43:00,
2013-11-20 21:58:00,63.9,41.0,30.20,NW,319,0.0,-999.0,43,-99.99,,,0.00,0,weatherlink.com 1.10,2013-11-21 04:58:00,
2013-11-20 22:13:00,63.5,41.0,30.20,NW,319,0.0,-999.0,44,-99.99,,,0.00,0,weatherlink.com 1.10,2013-11-21 05:13:00,
2013-11-20 22:28:00,63.1,41.0,30.20,NW,319,0.0,-999.0,45,-99.99,,,0.00,0,weatherlink.com 1.10,2013-11-21 05:28:00,
2013-11-20 22:43:00,62.7,41.0,30.20,NW,319,0.0,-999.0,46,-99.99,,,0.00,0,weatherlink.com 1.10,2013-11-21 05:43:00,
2013-11-20 22:58:00,62.6,42.0,30.20,NW,319,0.0,-999.0,47,-99.99,,,0.00,0,weatherlink.com 1.10,2013-11-21 05:58:00,
2013-11-20 23:13:00,62.0,42.0,30.20,NW,319,0.0,-999.0,48,-99.99,,,0.00,0,weatherlink.com 1.10,2013-11-21 06:13:00,
2013-11-20 23:28:00,61.6,42.0,30.20,NW,319,0.0,-999.0,49,-99.99,,,0.00,0,weatherlink.com 1.10,2013-11-21 06:28:00,
2013-11-20 23:43:00,61.1,42.0,30.20,NW,319,0.0,-999.0,50,-99.99,,,0.00,0,weatherlink.com 1.10,2013-11-21 06:43:00,
2013-11-20 23:58:00,60.8,42.0,30.20,NW,319,0.0,-999.0,51,-99.99,,,0.00,0,weatherlink.com 1.10,2013-11-21 06:58:00,